Cuyahoga County Airport Cleveland US
ICAO: KCGF
IATA: CGF
Category: Medium
Scheduled Services: No

Elevation: 879 ft
TransAlt. 18000 ft.

Airport Communications:
CLEVELAND APP/DEP:125.35
CTAF:118.5
GND/CLNC DEL:121.85
COUNTY TWR:118.5
UNICOM:122.95

KCGF Zoom In..

Runways:

(A) RW 06 length 5102 ft width 100 ft
---- / hdg 57

(B) RW 24 length 5102 ft width 100 ft
ILS 111.10 / hdg 237

Location; KCGF
Day. 23 / Time. 02.45 Zulu
* Altimeter: 29.87
* Temperature: 19° c. 66.2°f.
* Wind from: 040° Speed 05 kn.
Dewpoint: 18° c.
Visibility: 5 Statute Miles.
Clouds: Overcast 600 ft.
Conditions: Light Rain.Conditions: Mist.

KCGF 230245Z 04005KT 5SM -RA BR OVC006 19/18 A2987


Wind From 040°
Speed 05 kn.

 
 
jpsmedia.com for Web Design worldairports.se 2018   terms of use